createdAt,value
2022-11-19T00:00:11.691Z,99.58
2022-11-19T00:01:11.671Z,98.79
2022-11-19T00:02:11.689Z,98.74
2022-11-19T00:03:11.603Z,98.74
2022-11-19T00:04:11.605Z,98.16
2022-11-19T00:05:11.618Z,98.89
2022-11-19T00:06:11.564Z,97.95
2022-11-19T00:07:11.629Z,99.41
2022-11-19T00:08:11.539Z,99.73
2022-11-19T00:09:11.505Z,99.99
2022-11-19T00:10:11.540Z,99.99
2022-11-19T00:11:11.506Z,99.94
2022-11-19T00:12:11.458Z,99.31
2022-11-19T00:13:11.457Z,99.52
2022-11-19T00:14:11.444Z,99.68
2022-11-19T00:15:11.474Z,99.79
2022-11-19T00:16:11.413Z,99.68
2022-11-19T00:17:11.411Z,99.48
2022-11-19T00:18:11.361Z,99.99
2022-11-19T00:19:11.350Z,99.79
2022-11-19T00:20:11.358Z,99.68
2022-11-19T00:21:11.326Z,99.16
2022-11-19T00:22:11.279Z,99.48
2022-11-19T00:23:12.274Z,99.37
2022-11-19T00:24:11.283Z,99.16
2022-11-19T00:25:11.283Z,99.58
2022-11-19T00:26:11.230Z,99.48
2022-11-19T00:27:11.218Z,99.90
2022-11-19T00:28:11.208Z,99.73
2022-11-19T00:29:14.318Z,99.99
2022-11-19T00:30:32.731Z,99.99
2022-11-19T00:31:13.201Z,99.99
2022-11-19T00:32:11.148Z,99.73
2022-11-19T00:33:11.101Z,99.84
2022-11-19T00:34:11.096Z,99.94
2022-11-19T00:35:11.104Z,99.84
2022-11-19T00:36:11.076Z,99.98
2022-11-19T00:37:11.038Z,99.57
2022-11-19T00:38:11.018Z,99.99
2022-11-19T00:39:11.004Z,99.99
2022-11-19T00:40:11.035Z,99.99
2022-11-19T00:41:10.969Z,99.84
2022-11-19T00:42:10.975Z,99.99
2022-11-19T00:43:10.930Z,99.67
2022-11-19T00:44:10.921Z,99.99
2022-11-19T00:45:10.939Z,99.41
2022-11-19T00:46:10.902Z,99.99
2022-11-19T00:47:10.874Z,99.99
2022-11-19T00:48:10.929Z,99.99
2022-11-19T00:49:10.839Z,99.99
2022-11-19T00:50:10.878Z,99.46
2022-11-19T00:51:10.800Z,99.99
2022-11-19T00:52:10.775Z,99.99
2022-11-19T00:53:10.765Z,99.98
2022-11-19T00:54:10.741Z,99.99
2022-11-19T00:55:10.857Z,99.99
2022-11-19T00:56:11.362Z,99.99
2022-11-19T00:57:11.878Z,99.99
2022-11-19T00:58:11.430Z,99.99
2022-11-19T00:59:12.398Z,99.99
2022-11-19T01:00:12.126Z,99.99
2022-11-19T01:01:11.032Z,99.99
2022-11-19T01:02:11.209Z,99.99
2022-11-19T01:03:11.211Z,99.99
2022-11-19T01:04:11.132Z,99.99
2022-11-19T01:05:11.144Z,99.99
2022-11-19T01:06:14.229Z,99.99
2022-11-19T01:07:14.102Z,99.99
2022-11-19T01:08:11.042Z,99.99
2022-11-19T01:09:12.213Z,99.99
2022-11-19T01:10:10.933Z,99.99
2022-11-19T01:11:10.815Z,99.99
2022-11-19T01:12:10.761Z,99.99
2022-11-19T01:13:11.869Z,99.99
2022-11-19T01:14:12.485Z,99.99
2022-11-19T01:15:11.155Z,99.99
2022-11-19T01:16:11.295Z,99.99
2022-11-19T01:17:10.859Z,99.99
2022-11-19T01:18:10.329Z,99.99
2022-11-19T01:19:10.326Z,99.99
2022-11-19T01:20:10.371Z,99.99
2022-11-19T01:21:10.285Z,99.99
2022-11-19T01:22:10.261Z,99.99
2022-11-19T01:23:10.257Z,99.99
2022-11-19T01:24:10.264Z,99.99
2022-11-19T01:25:10.243Z,99.99
2022-11-19T01:26:11.147Z,99.99
2022-11-19T01:27:11.158Z,99.99
2022-11-19T01:28:10.721Z,99.99
2022-11-19T01:29:10.441Z,99.99
2022-11-19T01:30:11.445Z,99.99
2022-11-19T01:31:10.136Z,99.99
2022-11-19T01:32:10.116Z,99.99
2022-11-19T01:33:10.082Z,99.99
2022-11-19T01:34:10.078Z,99.99
2022-11-19T01:35:10.104Z,99.99
2022-11-19T01:36:10.052Z,99.99
2022-11-19T01:37:10.130Z,99.99
2022-11-19T01:38:09.994Z,99.99
2022-11-19T01:39:09.975Z,99.99
2022-11-19T01:40:09.990Z,99.99
2022-11-19T01:41:09.946Z,99.99
2022-11-19T01:42:09.929Z,99.99
2022-11-19T01:43:09.907Z,99.99
2022-11-19T01:44:09.886Z,99.99
2022-11-19T01:45:09.902Z,99.99
2022-11-19T01:46:09.862Z,99.99
2022-11-19T01:47:10.572Z,99.99
2022-11-19T01:48:11.400Z,99.55
2022-11-19T01:49:10.851Z,99.99
2022-11-19T01:50:09.809Z,99.99
2022-11-19T01:51:09.771Z,99.99
2022-11-19T01:52:09.748Z,99.99
2022-11-19T01:53:09.725Z,99.99
2022-11-19T01:54:09.714Z,99.99
2022-11-19T01:55:09.735Z,99.99
2022-11-19T01:56:09.680Z,99.99
2022-11-19T01:57:09.701Z,99.99
2022-11-19T01:58:09.780Z,99.87
2022-11-19T01:59:09.646Z,99.60
2022-11-19T02:00:09.645Z,99.99
2022-11-19T02:01:09.601Z,99.66
2022-11-19T02:02:09.569Z,99.87
2022-11-19T02:03:09.564Z,99.76
2022-11-19T02:04:09.532Z,99.97
2022-11-19T02:05:09.567Z,99.76
2022-11-19T02:06:09.552Z,99.55
2022-11-19T02:07:09.521Z,99.38
2022-11-19T02:08:09.471Z,99.55
2022-11-19T02:09:09.455Z,99.76
2022-11-19T02:10:09.466Z,99.24
2022-11-19T02:11:09.419Z,99.34
2022-11-19T02:12:09.410Z,99.03
2022-11-19T02:13:09.388Z,99.34
2022-11-19T02:14:09.390Z,99.24
2022-11-19T02:15:09.390Z,99.66
2022-11-19T02:16:09.333Z,99.55
2022-11-19T02:17:09.314Z,99.34
2022-11-19T02:18:09.304Z,99.24
2022-11-19T02:19:09.284Z,98.97
2022-11-19T02:20:09.293Z,99.55
2022-11-19T02:21:09.250Z,99.38
2022-11-19T02:22:09.233Z,99.87
2022-11-19T02:23:09.236Z,99.97
2022-11-19T02:24:09.199Z,99.93
2022-11-19T02:25:09.204Z,99.44
2022-11-19T02:26:09.163Z,99.34
2022-11-19T02:27:09.141Z,99.34
2022-11-19T02:28:09.121Z,99.44
2022-11-19T02:29:09.131Z,99.38
2022-11-19T02:30:09.129Z,99.99
2022-11-19T02:31:09.083Z,99.87
2022-11-19T02:32:09.056Z,99.87
2022-11-19T02:33:09.042Z,99.99
2022-11-19T02:34:09.021Z,99.99
2022-11-19T02:35:09.014Z,99.38
2022-11-19T02:36:09.045Z,99.97
2022-11-19T02:37:08.970Z,99.24
2022-11-19T02:38:08.941Z,99.44
2022-11-19T02:39:08.931Z,99.24
2022-11-19T02:40:08.952Z,99.28
2022-11-19T02:41:08.923Z,98.86
2022-11-19T02:42:08.875Z,99.28
2022-11-19T02:43:08.924Z,99.24
2022-11-19T02:44:08.840Z,99.76
2022-11-19T02:45:08.827Z,99.34
2022-11-19T02:46:08.847Z,99.18
2022-11-19T02:47:08.792Z,99.49
2022-11-19T02:48:08.794Z,98.86
2022-11-19T02:49:08.794Z,99.07
2022-11-19T02:50:08.738Z,99.49
2022-11-19T02:51:08.761Z,98.44
2022-11-19T02:52:08.701Z,99.49
2022-11-19T02:53:08.676Z,98.97
2022-11-19T02:54:08.668Z,98.97
2022-11-19T02:55:08.665Z,98.97
2022-11-19T02:56:08.673Z,99.49
2022-11-19T02:57:08.613Z,99.38
2022-11-19T02:58:08.586Z,99.60
2022-11-19T02:59:08.569Z,99.60
2022-11-19T03:00:08.570Z,98.65
2022-11-19T03:01:08.705Z,98.55
2022-11-19T03:02:08.529Z,98.65
2022-11-19T03:03:08.505Z,98.75
2022-11-19T03:04:08.502Z,98.97
2022-11-19T03:05:08.480Z,98.65
2022-11-19T03:06:08.485Z,99.18
2022-11-19T03:07:08.477Z,98.65
2022-11-19T03:08:08.449Z,99.28
2022-11-19T03:09:08.409Z,98.86
2022-11-19T03:10:08.410Z,98.97
2022-11-19T03:11:08.404Z,99.07
2022-11-19T03:12:08.393Z,98.13
2022-11-19T03:13:08.394Z,99.01
2022-11-19T03:14:09.329Z,98.86
2022-11-19T03:15:08.319Z,99.18
2022-11-19T03:16:08.327Z,98.13
2022-11-19T03:17:08.281Z,98.69
2022-11-19T03:18:08.236Z,98.28
2022-11-19T03:19:08.256Z,98.23
2022-11-19T03:20:08.211Z,98.23
2022-11-19T03:21:08.251Z,98.02
2022-11-19T03:22:08.189Z,97.39
2022-11-19T03:23:08.175Z,98.28
2022-11-19T03:24:08.142Z,99.22
2022-11-19T03:25:08.147Z,98.97
2022-11-19T03:26:08.152Z,99.38
2022-11-19T03:27:08.104Z,98.07
2022-11-19T03:28:08.068Z,97.08
2022-11-19T03:29:08.090Z,97.12
2022-11-19T03:30:08.048Z,98.49
2022-11-19T03:31:08.068Z,97.64
2022-11-19T03:32:08.018Z,97.75
2022-11-19T03:33:08.996Z,97.64
2022-11-19T03:34:07.980Z,97.54
2022-11-19T03:35:08.000Z,97.64
2022-11-19T03:36:07.965Z,98.28
2022-11-19T03:37:07.917Z,97.96
2022-11-19T03:38:07.904Z,97.75
2022-11-19T03:39:08.893Z,97.60
2022-11-19T03:40:07.889Z,97.96
2022-11-19T03:41:07.883Z,97.44
2022-11-19T03:42:07.838Z,97.60
2022-11-19T03:43:07.810Z,97.29
2022-11-19T03:44:07.810Z,98.07
2022-11-19T03:45:07.792Z,97.75
2022-11-19T03:46:07.818Z,97.60
2022-11-19T03:47:07.749Z,97.50
2022-11-19T03:48:07.728Z,97.29
2022-11-19T03:49:07.709Z,97.75
2022-11-19T03:50:07.693Z,97.08
2022-11-19T03:51:07.710Z,97.44
2022-11-19T03:52:07.651Z,97.23
2022-11-19T03:53:07.649Z,96.81
2022-11-19T03:54:07.619Z,97.02
2022-11-19T03:55:07.613Z,97.96
2022-11-19T03:56:07.634Z,97.75
2022-11-19T03:57:07.578Z,97.75
2022-11-19T03:58:07.559Z,98.07
2022-11-19T03:59:08.606Z,96.91
2022-11-19T04:00:08.521Z,97.44
2022-11-19T04:01:07.539Z,97.44
2022-11-19T04:02:07.581Z,97.12
2022-11-19T04:03:07.492Z,97.33
2022-11-19T04:04:07.472Z,96.91
2022-11-19T04:05:07.480Z,97.75
2022-11-19T04:06:07.485Z,97.39
2022-11-19T04:07:07.455Z,97.23
2022-11-19T04:08:07.388Z,97.64
2022-11-19T04:09:07.384Z,96.77
2022-11-19T04:10:07.357Z,96.59
2022-11-19T04:12:40.036Z,96.07
2022-11-19T04:13:40.049Z,97.02
2022-11-19T04:14:40.024Z,96.49
2022-11-19T04:15:43.901Z,96.81
2022-11-19T04:16:39.992Z,97.54
2022-11-19T04:17:39.994Z,96.91
2022-11-19T04:18:39.947Z,96.55
2022-11-19T04:19:39.938Z,96.45
2022-11-19T04:20:39.945Z,96.28
2022-11-19T04:21:39.936Z,95.97
2022-11-19T04:22:39.940Z,95.54
2022-11-19T04:23:39.860Z,96.28
2022-11-19T04:24:39.835Z,95.44
2022-11-19T04:25:39.861Z,95.44
2022-11-19T04:26:39.796Z,96.07
2022-11-19T04:27:39.785Z,96.28
2022-11-19T04:28:39.767Z,96.07
2022-11-19T04:29:39.745Z,95.40
2022-11-19T04:30:39.789Z,95.44
2022-11-19T04:31:39.717Z,95.76
2022-11-19T04:32:39.686Z,95.65
2022-11-19T04:33:39.675Z,95.48
2022-11-19T04:34:39.648Z,95.86
2022-11-19T04:35:40.821Z,95.97
2022-11-19T04:36:40.768Z,95.44
2022-11-19T04:37:40.801Z,95.97
2022-11-19T04:38:40.733Z,95.44
2022-11-19T04:39:40.720Z,96.07
2022-11-19T04:40:40.827Z,95.97
2022-11-19T04:41:40.681Z,94.81
2022-11-19T04:42:40.683Z,95.76
2022-11-19T04:43:40.640Z,95.97
2022-11-19T04:44:40.630Z,94.96
2022-11-19T04:45:40.644Z,95.80
2022-11-19T04:46:41.604Z,95.59
2022-11-19T04:47:40.596Z,95.48
2022-11-19T04:48:40.562Z,95.70
2022-11-19T04:49:40.557Z,96.26
2022-11-19T04:50:40.566Z,95.80
2022-11-19T04:51:40.524Z,95.70
2022-11-19T04:52:41.421Z,95.90
2022-11-19T04:53:41.469Z,95.32
2022-11-19T04:54:40.498Z,94.75
2022-11-19T04:55:40.467Z,94.96
2022-11-19T04:56:40.423Z,95.28
2022-11-19T04:57:40.408Z,94.43
2022-11-19T04:58:40.427Z,95.10
2022-11-19T04:59:40.384Z,94.69
2022-11-19T05:00:40.420Z,94.90
2022-11-19T05:01:40.396Z,95.00
2022-11-19T05:02:40.335Z,94.37
2022-11-19T05:03:40.292Z,93.85
2022-11-19T05:04:40.293Z,93.80
2022-11-19T05:05:40.268Z,94.48
2022-11-19T05:06:40.278Z,94.69
2022-11-19T05:07:40.321Z,94.85
2022-11-19T05:08:40.202Z,94.01
2022-11-19T05:09:40.180Z,94.65
2022-11-19T05:10:40.186Z,93.70
2022-11-19T05:11:40.221Z,93.70
2022-11-19T05:12:40.156Z,93.18
2022-11-19T05:13:40.123Z,93.07
2022-11-19T05:14:40.114Z,92.44
2022-11-19T05:15:40.073Z,92.86
2022-11-19T05:16:40.106Z,92.76
2022-11-19T05:17:40.058Z,93.18
2022-11-19T05:18:40.061Z,93.18
2022-11-19T05:19:40.004Z,93.18
2022-11-19T05:20:40.001Z,92.96
2022-11-19T05:21:40.020Z,92.76
2022-11-19T05:22:39.972Z,92.96
2022-11-19T05:23:39.943Z,91.60
2022-11-19T05:24:39.927Z,92.02
2022-11-19T05:25:39.903Z,92.86
2022-11-19T05:26:39.918Z,92.33
2022-11-19T05:27:39.867Z,92.86
2022-11-19T05:28:40.206Z,93.18
2022-11-19T05:29:39.823Z,92.69
2022-11-19T05:30:39.812Z,93.22
2022-11-19T05:31:39.842Z,93.22
2022-11-19T05:32:39.781Z,92.96
2022-11-19T05:33:39.783Z,92.58
2022-11-19T05:34:39.770Z,92.38
2022-11-19T05:35:39.747Z,92.69
2022-11-19T05:36:39.750Z,93.32
2022-11-19T05:37:39.706Z,93.11
2022-11-19T05:38:39.676Z,92.90
2022-11-19T05:39:39.668Z,93.53
2022-11-19T05:40:39.635Z,93.32
2022-11-19T05:41:39.658Z,93.11
2022-11-19T05:42:39.605Z,93.11
2022-11-19T05:43:39.589Z,93.32
2022-11-19T05:44:39.580Z,93.32
2022-11-19T05:45:39.555Z,92.38
2022-11-19T05:46:39.574Z,93.01
2022-11-19T05:47:42.300Z,92.80
2022-11-19T05:48:40.497Z,92.06
2022-11-19T05:49:39.481Z,92.16
2022-11-19T05:50:39.456Z,92.38
2022-11-19T05:51:39.489Z,92.63
2022-11-19T05:52:39.457Z,92.38
2022-11-19T05:53:39.410Z,93.11
2022-11-19T05:54:39.404Z,93.22
2022-11-19T05:55:39.379Z,92.80
2022-11-19T05:56:39.379Z,92.73
2022-11-19T05:57:39.332Z,93.05
2022-11-19T05:58:40.326Z,93.22
2022-11-19T05:59:43.587Z,93.05
2022-11-19T06:00:40.323Z,92.48
2022-11-19T06:01:39.331Z,92.63
2022-11-19T06:02:39.321Z,92.42
2022-11-19T06:03:39.267Z,92.27
2022-11-19T06:04:39.225Z,92.52
2022-11-19T06:05:40.696Z,91.64
2022-11-19T06:06:40.223Z,92.27
2022-11-19T06:07:39.213Z,92.06
2022-11-19T06:08:39.151Z,92.27
2022-11-19T06:09:39.134Z,91.89
2022-11-19T06:10:39.113Z,91.58
2022-11-19T06:11:39.119Z,92.31
2022-11-19T06:12:44.102Z,91.96
2022-11-19T06:13:41.057Z,91.68
2022-11-19T06:14:39.049Z,91.58
2022-11-19T06:15:39.027Z,91.33
2022-11-19T06:16:39.054Z,91.05
2022-11-19T06:17:39.027Z,90.21
2022-11-19T06:18:38.965Z,90.59
2022-11-19T06:19:38.946Z,90.00
2022-11-19T06:20:38.935Z,90.73
2022-11-19T06:21:38.931Z,90.38
2022-11-19T06:22:38.891Z,90.27
2022-11-19T06:23:38.869Z,90.80
2022-11-19T06:24:38.849Z,90.38
2022-11-19T06:25:38.830Z,89.89
2022-11-19T06:26:38.866Z,89.86
2022-11-19T06:27:38.800Z,89.75
2022-11-19T06:28:38.781Z,89.47
2022-11-19T06:29:38.758Z,89.47
2022-11-19T06:30:38.767Z,89.05
2022-11-19T06:31:38.771Z,88.91
2022-11-19T06:32:38.714Z,89.43
2022-11-19T06:33:38.721Z,89.64
2022-11-19T06:34:38.725Z,89.64
2022-11-19T06:35:38.675Z,89.54
2022-11-19T06:36:42.707Z,89.64
2022-11-19T06:37:40.627Z,89.22
2022-11-19T06:38:38.610Z,88.84
2022-11-19T06:39:38.601Z,89.26
2022-11-19T06:40:38.602Z,89.47
2022-11-19T06:41:38.601Z,89.79
2022-11-19T06:42:38.537Z,90.42
2022-11-19T06:43:38.532Z,90.00
2022-11-19T06:44:38.501Z,90.56
2022-11-19T06:45:38.486Z,89.79
2022-11-19T06:46:38.503Z,89.72
2022-11-19T06:47:38.461Z,89.94
2022-11-19T06:48:38.444Z,90.25
2022-11-19T06:49:38.422Z,90.25
2022-11-19T06:50:38.414Z,90.67
2022-11-19T06:51:38.417Z,92.14
2022-11-19T06:52:38.368Z,91.41
2022-11-19T06:53:38.347Z,91.30
2022-11-19T06:54:42.830Z,90.56
2022-11-19T06:55:39.316Z,91.51
2022-11-19T06:56:38.347Z,91.93
2022-11-19T06:57:38.336Z,90.25
2022-11-19T06:58:38.263Z,90.25
2022-11-19T06:59:38.258Z,90.46
2022-11-19T07:00:38.228Z,90.67
2022-11-19T07:01:38.308Z,90.36
2022-11-19T07:02:38.191Z,91.20
2022-11-19T07:03:38.170Z,91.51
2022-11-19T07:04:38.148Z,91.41
2022-11-19T07:05:38.134Z,91.30
2022-11-19T07:06:38.143Z,91.26
2022-11-19T07:07:38.142Z,90.56
2022-11-19T07:08:38.076Z,91.41
2022-11-19T07:09:38.061Z,91.41
2022-11-19T07:10:38.037Z,90.04
2022-11-19T07:11:38.076Z,90.36
2022-11-19T07:12:38.012Z,90.78
2022-11-19T07:13:38.019Z,90.04
2022-11-19T07:14:37.981Z,90.67
2022-11-19T07:15:37.964Z,91.62
2022-11-19T07:16:37.997Z,91.62
2022-11-19T07:17:37.936Z,91.62
2022-11-19T07:18:37.918Z,91.47
2022-11-19T07:19:37.894Z,90.21
2022-11-19T07:20:37.877Z,90.67
2022-11-19T07:21:37.861Z,91.51
2022-11-19T07:22:37.872Z,90.88
2022-11-19T07:23:37.825Z,91.26
2022-11-19T07:24:37.797Z,91.36
2022-11-19T07:25:37.795Z,90.53
2022-11-19T07:26:37.870Z,90.56
2022-11-19T07:27:37.776Z,90.31
2022-11-19T07:28:37.760Z,90.31
2022-11-19T07:29:37.710Z,91.16
2022-11-19T07:30:37.689Z,90.63
2022-11-19T07:31:37.681Z,91.47
2022-11-19T07:32:37.731Z,91.05
2022-11-19T07:33:37.660Z,90.11
2022-11-19T07:34:37.630Z,90.42
2022-11-19T07:35:37.615Z,90.31
2022-11-19T07:36:37.664Z,91.26
2022-11-19T07:37:37.621Z,90.21
2022-11-19T07:38:37.566Z,90.48
2022-11-19T07:39:37.558Z,90.73
2022-11-19T07:40:37.544Z,89.75
2022-11-19T07:41:37.513Z,89.96
2022-11-19T07:42:37.545Z,89.86
2022-11-19T07:43:37.492Z,89.43
2022-11-19T07:44:37.487Z,89.32
2022-11-19T07:45:37.436Z,89.64
2022-11-19T07:46:37.443Z,89.39
2022-11-19T07:47:37.398Z,89.50
2022-11-19T07:48:37.379Z,89.71
2022-11-19T07:49:37.356Z,88.66
2022-11-19T07:50:37.357Z,88.97
2022-11-19T07:51:37.325Z,87.67
2022-11-19T07:52:37.335Z,86.94
2022-11-19T07:53:37.311Z,86.20
2022-11-19T07:54:37.285Z,87.15
2022-11-19T07:55:37.250Z,86.94
2022-11-19T07:56:37.291Z,86.83
2022-11-19T07:57:37.241Z,86.94
2022-11-19T07:58:37.206Z,87.15
2022-11-19T07:59:37.191Z,86.83
2022-11-19T08:00:37.202Z,86.94
2022-11-19T08:01:37.209Z,87.04
2022-11-19T08:02:37.173Z,87.00
2022-11-19T08:03:37.128Z,87.00
2022-11-19T08:04:37.120Z,86.30
2022-11-19T08:05:37.102Z,86.20
2022-11-19T08:06:37.063Z,87.46
2022-11-19T08:07:37.125Z,86.79
2022-11-19T08:08:37.032Z,87.15
2022-11-19T08:09:37.036Z,86.62
2022-11-19T08:10:36.983Z,86.72
2022-11-19T08:11:36.973Z,86.83
2022-11-19T08:12:36.995Z,87.46
2022-11-19T08:13:36.962Z,87.40
2022-11-19T08:14:36.909Z,86.83
2022-11-19T08:15:36.911Z,86.98
2022-11-19T08:16:36.901Z,87.50
2022-11-19T08:17:36.913Z,87.33
2022-11-19T08:18:36.851Z,87.23
2022-11-19T08:19:36.825Z,87.50
2022-11-19T08:20:36.817Z,87.96
2022-11-19T08:21:36.787Z,87.96
2022-11-19T08:22:36.801Z,87.65
2022-11-19T08:23:36.761Z,87.75
2022-11-19T08:24:36.760Z,88.02
2022-11-19T08:25:36.718Z,87.67
2022-11-19T08:26:36.713Z,86.88
2022-11-19T08:27:36.726Z,84.63
2022-11-19T08:28:36.678Z,81.90
2022-11-19T08:29:36.667Z,80.82
2022-11-19T08:30:36.643Z,78.97
2022-11-19T08:31:36.619Z,76.12
2022-11-19T08:32:36.632Z,76.37
2022-11-19T08:33:36.579Z,76.33
2022-11-19T08:34:36.578Z,76.72
2022-11-19T08:35:36.542Z,75.88
2022-11-19T08:36:36.538Z,74.39
2022-11-19T08:37:36.588Z,72.56
2022-11-19T08:38:38.801Z,69.52
2022-11-19T08:39:37.481Z,68.86
2022-11-19T08:40:36.467Z,67.32
2022-11-19T08:41:36.435Z,65.11
2022-11-19T08:42:36.460Z,65.84
2022-11-19T08:43:36.428Z,64.40
2022-11-19T08:44:36.389Z,63.54
2022-11-19T08:45:36.380Z,62.90
2022-11-19T08:46:36.365Z,60.47
2022-11-19T08:47:36.408Z,60.72
2022-11-19T08:48:36.335Z,60.25
2022-11-19T08:49:36.320Z,58.16
2022-11-19T08:50:36.282Z,56.59
2022-11-19T08:51:36.280Z,55.15
2022-11-19T08:52:36.314Z,54.51
2022-11-19T08:53:36.266Z,54.79
2022-11-19T08:54:36.217Z,52.89
2022-11-19T08:55:36.212Z,52.59
2022-11-19T08:56:36.221Z,52.54
2022-11-19T08:57:36.229Z,52.54
2022-11-19T08:58:36.164Z,52.00
2022-11-19T08:59:36.172Z,51.51
2022-11-19T09:00:36.180Z,50.61
2022-11-19T09:01:36.096Z,50.20
2022-11-19T09:02:36.110Z,50.82
2022-11-19T09:03:36.069Z,50.53
2022-11-19T09:04:36.049Z,51.37
2022-11-19T09:05:36.073Z,52.84
2022-11-19T09:06:36.025Z,53.02
2022-11-19T09:07:36.077Z,51.71
2022-11-19T09:08:35.978Z,52.06
2022-11-19T09:09:35.955Z,53.07
2022-11-19T09:10:35.946Z,54.51
2022-11-19T09:11:39.901Z,52.64
2022-11-19T09:12:37.939Z,52.84
2022-11-19T09:13:35.889Z,52.84
2022-11-19T09:14:35.882Z,52.53
2022-11-19T09:15:35.842Z,52.09
2022-11-19T09:16:35.836Z,50.56
2022-11-19T09:17:35.856Z,50.99
2022-11-19T09:18:36.798Z,52.12
2022-11-19T09:19:35.783Z,53.07
2022-11-19T09:20:35.812Z,51.98
2022-11-19T09:21:35.749Z,53.02
2022-11-19T09:22:35.791Z,52.48
2022-11-19T09:23:35.732Z,52.11
2022-11-19T09:24:36.683Z,53.48
2022-11-19T09:25:35.663Z,53.27
2022-11-19T09:26:35.648Z,53.61
2022-11-19T09:27:35.668Z,53.06
2022-11-19T09:28:35.614Z,54.66
2022-11-19T09:29:35.603Z,52.81
2022-11-19T09:30:35.577Z,52.48
2022-11-19T09:31:35.556Z,51.22
2022-11-19T09:32:35.587Z,50.32
2022-11-19T09:33:35.521Z,50.57
2022-11-19T09:34:35.533Z,52.91
2022-11-19T09:35:35.503Z,52.86
2022-11-19T09:36:35.475Z,53.56
2022-11-19T09:37:35.482Z,52.47
2022-11-19T09:38:35.445Z,52.91
2022-11-19T09:39:35.427Z,54.38
2022-11-19T09:40:35.403Z,54.40
2022-11-19T09:41:35.395Z,55.30
2022-11-19T09:42:35.403Z,55.00
2022-11-19T09:43:35.355Z,55.23
2022-11-19T09:44:35.364Z,54.46
2022-11-19T09:45:35.324Z,53.53
2022-11-19T09:46:35.300Z,54.64
2022-11-19T09:47:35.322Z,52.76
2022-11-19T09:48:35.261Z,52.96
2022-11-19T09:49:35.245Z,52.34
2022-11-19T09:50:35.225Z,53.06
2022-11-19T09:51:35.240Z,52.08
2022-11-19T09:52:35.221Z,53.55
2022-11-19T09:53:35.174Z,54.79
2022-11-19T09:54:35.151Z,54.50
2022-11-19T09:55:35.137Z,54.38
2022-11-19T09:56:35.110Z,55.41
2022-11-19T09:57:35.139Z,54.77
2022-11-19T09:58:35.092Z,53.68
2022-11-19T09:59:35.081Z,52.83
2022-11-19T10:00:35.042Z,52.86
2022-11-19T10:01:35.028Z,52.96
2022-11-19T10:02:35.082Z,53.58
2022-11-19T10:03:34.996Z,52.94
2022-11-19T10:04:34.993Z,52.76
2022-11-19T10:05:34.950Z,52.98
2022-11-19T10:06:34.940Z,52.78
2022-11-19T10:07:35.013Z,52.88
2022-11-19T10:08:34.921Z,54.53
2022-11-19T10:09:34.884Z,55.57
2022-11-19T10:10:34.901Z,54.43
2022-11-19T10:11:34.876Z,52.78
2022-11-19T10:12:34.883Z,52.78
2022-11-19T10:13:34.830Z,53.30
2022-11-19T10:14:34.819Z,52.26
2022-11-19T10:15:37.848Z,52.88
2022-11-19T10:16:35.773Z,53.61
2022-11-19T10:17:34.793Z,52.94
2022-11-19T10:18:34.733Z,52.63
2022-11-19T10:19:34.784Z,52.45
2022-11-19T10:20:34.694Z,51.93
2022-11-19T10:21:34.686Z,52.96
2022-11-19T10:22:34.703Z,52.66
2022-11-19T10:23:34.661Z,53.09
2022-11-19T10:24:34.627Z,52.88
2022-11-19T10:25:34.620Z,53.06
2022-11-19T10:26:34.591Z,52.83
2022-11-19T10:27:34.603Z,52.61
2022-11-19T10:28:34.547Z,51.26
2022-11-19T10:29:34.546Z,50.34
2022-11-19T10:30:34.514Z,51.04
2022-11-19T10:31:34.508Z,50.73
2022-11-19T10:32:34.524Z,50.83
2022-11-19T10:33:34.474Z,50.32
2022-11-19T10:34:35.455Z,50.83
2022-11-19T10:35:34.432Z,50.68
2022-11-19T10:36:34.419Z,50.06
2022-11-19T10:37:34.430Z,49.32
2022-11-19T10:38:34.376Z,49.43
2022-11-19T10:39:34.359Z,49.01
2022-11-19T10:40:34.341Z,48.89
2022-11-19T10:41:34.351Z,48.27
2022-11-19T10:42:34.343Z,48.58
2022-11-19T10:43:34.288Z,48.89
2022-11-19T10:44:34.268Z,48.56
2022-11-19T10:45:34.252Z,48.99
2022-11-19T10:46:34.247Z,48.97
2022-11-19T10:47:34.264Z,48.58
2022-11-19T10:48:35.203Z,48.86
2022-11-19T10:49:34.185Z,48.79
2022-11-19T10:50:34.188Z,49.40
2022-11-19T10:51:34.155Z,50.04
2022-11-19T10:52:34.165Z,49.51
2022-11-19T10:53:34.112Z,48.50
2022-11-19T10:54:34.109Z,48.72
2022-11-19T10:55:34.079Z,49.47
2022-11-19T10:56:34.068Z,49.68
2022-11-19T10:57:34.078Z,49.78
2022-11-19T10:58:34.032Z,51.01
2022-11-19T10:59:34.013Z,51.24
2022-11-19T11:00:34.120Z,50.75
2022-11-19T11:01:34.114Z,51.91
2022-11-19T11:02:33.993Z,52.22
2022-11-19T11:03:33.937Z,52.24
2022-11-19T11:04:33.927Z,51.83
2022-11-19T11:05:33.898Z,52.96
2022-11-19T11:06:33.887Z,53.09
2022-11-19T11:07:33.917Z,53.06
2022-11-19T11:08:33.865Z,52.98
2022-11-19T11:09:33.844Z,52.86
2022-11-19T11:10:33.809Z,53.06
2022-11-19T11:11:34.800Z,52.55
2022-11-19T11:12:33.818Z,52.78
2022-11-19T11:13:33.782Z,54.20
2022-11-19T11:14:33.740Z,52.86
2022-11-19T11:15:33.741Z,52.76
2022-11-19T11:16:37.708Z,52.14
2022-11-19T11:17:34.721Z,52.76
2022-11-19T11:18:33.671Z,53.06
2022-11-19T11:19:33.657Z,52.73
2022-11-19T11:20:33.640Z,52.01
2022-11-19T11:21:33.619Z,52.63
2022-11-19T11:22:33.633Z,52.14
2022-11-19T11:23:33.638Z,52.55
2022-11-19T11:24:33.575Z,52.32
2022-11-19T11:25:33.545Z,52.73
2022-11-19T11:26:33.530Z,52.83
2022-11-19T11:27:33.569Z,52.37
2022-11-19T11:28:33.498Z,52.98
2022-11-19T11:29:33.472Z,53.40
2022-11-19T11:30:33.472Z,52.62
2022-11-19T11:31:33.442Z,54.63
2022-11-19T11:32:33.488Z,56.13
2022-11-19T11:33:33.408Z,57.40
2022-11-19T11:34:33.404Z,57.87
2022-11-19T11:35:33.370Z,58.54
2022-11-19T11:36:33.361Z,60.25
2022-11-19T11:37:33.393Z,60.15
2022-11-19T11:38:33.329Z,61.76
2022-11-19T11:39:33.306Z,61.79
2022-11-19T11:40:33.294Z,63.09
2022-11-19T11:42:35.301Z,64.79
2022-11-19T11:43:33.237Z,64.58
2022-11-19T11:44:33.219Z,66.24
2022-11-19T11:45:33.199Z,66.80
2022-11-19T11:46:33.186Z,67.45
2022-11-19T11:47:33.181Z,67.14
2022-11-19T11:48:33.194Z,67.90
2022-11-19T11:49:33.142Z,68.21
2022-11-19T11:50:33.126Z,68.13
2022-11-19T11:51:33.088Z,69.00
2022-11-19T11:52:33.082Z,69.10
2022-11-19T11:53:33.091Z,70.07
2022-11-19T11:54:33.048Z,69.73
2022-11-19T11:55:33.041Z,70.39
2022-11-19T11:56:33.003Z,70.91
2022-11-19T11:57:33.005Z,71.22
2022-11-19T11:58:33.010Z,70.60
2022-11-19T11:59:32.959Z,71.15
2022-11-19T12:00:32.950Z,71.36
2022-11-19T12:01:32.919Z,71.47
2022-11-19T12:02:33.061Z,71.47
2022-11-19T12:03:34.355Z,70.94
2022-11-19T12:04:32.869Z,71.50
2022-11-19T12:05:32.854Z,71.29
2022-11-19T12:06:32.856Z,71.91
2022-11-19T12:07:32.849Z,72.54
2022-11-19T12:08:32.845Z,72.33
2022-11-19T12:09:32.794Z,72.26
2022-11-19T12:10:32.777Z,72.85
2022-11-19T12:11:32.752Z,71.98
2022-11-19T12:12:32.742Z,72.92
2022-11-19T12:13:32.755Z,73.24
2022-11-19T12:14:32.716Z,73.52
2022-11-19T12:15:32.690Z,73.24
2022-11-19T12:16:32.672Z,74.07
2022-11-19T12:17:32.653Z,74.18
2022-11-19T12:18:32.664Z,74.80
2022-11-19T12:19:32.609Z,74.35
2022-11-19T12:20:32.590Z,75.53
2022-11-19T12:21:32.569Z,75.01
2022-11-19T12:22:32.563Z,74.42
2022-11-19T12:23:32.576Z,75.15
2022-11-19T12:24:32.550Z,74.80
2022-11-19T12:25:32.521Z,75.22
2022-11-19T12:26:32.488Z,75.53
2022-11-19T12:27:32.489Z,75.46
2022-11-19T12:28:32.508Z,74.63
2022-11-19T12:29:32.461Z,75.88
2022-11-19T12:30:33.432Z,75.08
2022-11-19T12:31:32.416Z,76.12
2022-11-19T12:32:32.385Z,76.61
2022-11-19T12:33:32.390Z,75.60
2022-11-19T12:34:32.347Z,75.81
2022-11-19T12:35:32.339Z,76.33
2022-11-19T12:36:32.313Z,76.44
2022-11-19T12:37:32.296Z,76.23
2022-11-19T12:38:32.317Z,76.65
2022-11-19T12:39:32.261Z,75.81
2022-11-19T12:40:38.956Z,75.81
2022-11-19T12:41:34.230Z,76.44
2022-11-19T12:42:32.211Z,76.72
2022-11-19T12:43:32.233Z,75.60
2022-11-19T12:44:32.169Z,75.92
2022-11-19T12:45:32.162Z,76.54
2022-11-19T12:46:32.132Z,76.23
2022-11-19T12:47:32.127Z,76.02
2022-11-19T12:48:32.133Z,76.23
2022-11-19T12:49:32.086Z,76.51
2022-11-19T12:50:32.080Z,76.61
2022-11-19T12:51:32.054Z,76.51
2022-11-19T12:52:32.042Z,75.57
2022-11-19T12:53:32.066Z,76.44
2022-11-19T12:54:35.170Z,77.17